Shabbona, Illinois
Current Conditions -  °F | °C
As of 9:55 AM on Sunday 25 Jan 2015 (Local Time) from KRPJ Reporting Station
Light Snow Light Snow  
Wind Chill: 14°   Ceiling: 900
Heat Index: 28°   Visibility: 4mi
Dew Point: 26°   Wind: 23mph
Humidity: 91%   Direction: 40°NE
Pressure: 29.78"   Gusts: 29mph
Location:  41.77°N, 88.88°W
Report Text: KRPJ 251555Z AUTO 04020G25KT 4SM -SN BKN009 BKN018 OVC035 M02/M04 A2978 RMK AO2 T10231036
Loading
Personal Weather Stations






























Interactive Weather Map New forecast layout! Learn more

10-Day Weather Forecast

Advertisements
Track Severe Weather on mobile